Tiempo atmosférico en la estación meteorológica de Cuenca, Cuenca (945 m.)



Fecha
DESCASC
Temp. máxima en grados centígrados (hora)
DESCASC
Temp. mínima en grados centígrados (hora)
DESCASC
Temp. media en grados centígrados
DESCASC
Racha de viento máxima en m/sg (hora)
DESCASC
Velocidad máxima media en intervalos de 10 minutos(hora)
DESCASC
Precipitaciones diarias en mm
DESCASC
Precipitaciones de 00:00 a 06:00 en mm
DESCASC
Precipitaciones de 06:00 a 12:00 en mm
DESCASC
Precipitaciones de 12:00 a 18:00 en mm
DESCASC
Precipitaciones de 18:00 a 24:00 en mm
DESCASC
15-08-2019 35 (16:40) 15.8 (07:40) 25.4 8.33 (14:50) 3.06 (14:40) 0 0 0 0 0
14-08-2019 32.5 (17:30) 15.2 (00:00) 23.8 7.22 (14:30) 2.78 (16:00) 0 0 0 0 0
13-08-2019 29.3 (17:00) 15.9 (00:00) 22.6 6.94 (12:10) 3.06 (12:10) 0 0 0 0 0
12-08-2019 29.2 (17:00) 15.8 (00:00) 22.5 8.89 (19:10) 3.89 (19:10) 0 0 0 0 0
11-08-2019 30.9 (16:50) 19.4 (00:00) 25.1 9.17 (18:30) 4.17 (17:00) 0 0 0 0 0
10-08-2019 32.7 (17:40) 18.2 (00:00) 25.5 8.61 (17:10) 3.89 (14:50) 0 0 0 0 0
09-08-2019 33.7 (17:10) 17.7 (00:00) 25.7 8.89 (18:20) 4.44 (16:10) 0 0 0 0 0
08-08-2019 33.6 (17:50) 16.3 (00:00) 24.9 8.89 (17:00) 3.89 (17:00) 0 0 0 0 0
07-08-2019 31.8 (15:20) 17.7 (00:00) 24.8 7.5 (19:50) 3.61 (19:40) 0 0 0 0 0
06-08-2019 35.5 (15:50) 18.6 (00:00) 27.1 10 (18:10) 4.44 (17:50) 0 0 0 0 0
05-08-2019 36 (17:10) 18.3 (00:00) 27.1 8.33 (16:50) 3.61 (15:10) 0 0 0 0 0
04-08-2019 35.5 (16:40) 18.9 (00:00) 27.2 8.33 (17:00) 3.61 (15:50) 0 0 0 0 0
03-08-2019 35.3 (17:10) 19.7 (00:00) 27.5 8.33 (16:20) 4.17 (19:00) 0 0 0 0 0
02-08-2019 35.3 (17:20) 16.9 (00:00) 26.1 7.78 (16:40) 3.06 (19:50) 0 0 0 0 0
01-08-2019 33.6 (18:00) 16.9 (00:00) 25.2 7.22 (15:10) 3.89 (19:00) 0 0 0 0 0
31-07-2019 29.8 (17:10) 17.4 (00:00) 23.6 11.67 (12:20) 5.56 (10:30) 0 0 0 0 0
30-07-2019 33 (18:00) 14.5 (00:00) 23.8 7.22 (22:50) 3.89 (23:00) 0 0 0 0 0
29-07-2019 32.4 (17:30) 15 (00:00) 23.7 8.06 (14:00) 4.17 (13:30) 0 0 0 0 0
28-07-2019 29.9 (17:40) 12.8 (00:00) 21.3 8.33 (13:20) 4.17 (13:00) 0 0 0 0 0
27-07-2019 27 (14:50) 15.3 (00:00) 21.2 11.39 (15:40) 5.28 (16:00) 0 0 0 0 0
26-07-2019 32 (17:10) 21.5 (00:00) 26.8 10.56 (15:20) 4.72 (18:30) 0 0 0 0 0
25-07-2019 36.1 (17:00) 22.8 (00:00) 29.4 8.33 (05:20) 4.17 (05:20) 0 0 0 0 0
24-07-2019 36.5 (17:50) 20.6 (00:00) 28.6 10.56 (20:40) 5.56 (20:40) 0 0 0 0 0
23-07-2019 36 (16:20) 21 (00:00) 28.5 10.83 (14:50) 5.56 (14:10) 0 0 0 0 0
22-07-2019 35.2 (16:40) 20.7 (00:00) 28 10.56 (19:40) 5.28 (17:30) 0 0 0 0 0
21-07-2019 35.1 (16:30) 22.5 (00:00) 28.8 10.28 (18:20) 5.28 (19:40) 0 0 0 0 0
20-07-2019 36.7 (17:10) 21.1 (00:00) 28.9 10 (18:50) 5.28 (09:40) 0 0 0 0 0
19-07-2019 35 (17:00) 19.6 (00:00) 27.3 8.89 (22:30) 4.44 (12:00) 0 0 0 0 0
18-07-2019 34.4 (17:10) 17.5 (00:00) 26 7.5 (00:40) 3.61 (23:50) 0 0 0 0 0

Gráficas

Temp. máximas Temp. mínimas Temp. medias Precipitaciones Rachas de viento máximas Velocidades máximas media en intervalos de 10 minutos

Datos horarios

Fecha y hora oficial Temperatura (ºC) Velocidad del viento (km/h) Dirección del viento Racha (km/h) Dirección de racha Precipitación (mm) Presión (hPa) Tendencia (hPa) Humedad (%)
2019-08-16 23:00:00 27 0 Calma 10 Norte 0 910.5 1 26
2019-08-16 22:00:00 29.2 3 Norte 12 Norte 0 910.1 0.6 22
2019-08-16 21:00:00 31.1 5 Noroeste 17 Oeste 0 909.7 0.1 20
2019-08-16 20:00:00 32.9 8 Oeste 27 Noroeste 0 909.5 -0.7 19
2019-08-16 19:00:00 34.2 12 Oeste 32 Noroeste 0 909.5 -1.2 18
2019-08-16 18:00:00 34.8 5 Oeste 23 Oeste 0 909.6 -1.5 18
2019-08-16 17:00:00 34.7 9 Oeste 25 Sudoeste 0 910.2 -1.3 20
2019-08-16 16:00:00 34.1 9 Oeste 25 Oeste 0 910.7 -1.2 21
2019-08-16 15:00:00 33.6 9 Sudoeste 22 Sudoeste 0 911.1 -1.2 24
2019-08-16 14:00:00 32.6 7 Sur 18 Sudeste 0 911.5 -1 27
2019-08-16 13:00:00 30.1 8 Sudeste 19 Sur 0 911.9 -0.7 32
2019-08-16 12:00:00 28 7 Sur 19 Sur 0 912.3 -0.1 37
2019-08-16 11:00:00 25.6 12 Sudeste 25 Sudeste 0 912.5 0.5 43
2019-08-16 10:00:00 23.8 13 Sudeste 25 Sudeste 0 912.6 0.8 48
2019-08-16 09:00:00 21.2 2 Oeste 5 Oeste 0 912.4 0.9 61
2019-08-16 08:00:00 18.9 2 Nordeste 6 Norte 0 912 0.2 70
2019-08-16 07:00:00 19.4 0 Calma 6 Sudoeste 0 911.8 -0.1 68
2019-08-16 06:00:00 20 3 Oeste 6 Sudeste 0 911.5 -0.6 68
2019-08-16 05:00:00 20.7 2 Sudeste 5 Noroeste 0 911.8 -0.6 66
2019-08-16 04:00:00 21.5 3 Oeste 10 Noroeste 0 911.9 -0.5 64
2019-08-16 03:00:00 22.2 2 Oeste 10 Sur 0 912.1 0.1 62
2019-08-16 02:00:00 23.4 3 Sudoeste 23 Sudeste 0 912.4 0.5 56
2019-08-16 01:00:00 23.8 9 Sudeste 26 Sudeste 0 912.4 1.1 57
2019-08-16 00:00:00 24.5 10 Sudeste 24 Sudeste 0 912 1.1 57
2019-08-15 23:00:00 26 5 Sur 14 Sudeste 0 911.9 1.2 28
2019-08-15 22:00:00 28.4 3 Norte 8 Oeste 0 911.3 0.7 22
2019-08-15 21:00:00 30.5 4 Noroeste 13 Norte 0 910.9 0.2 20
2019-08-15 20:00:00 32.7 6 Noroeste 21 Noroeste 0 910.7 -0.2 18
2019-08-15 19:00:00 33.7 8 Noroeste 19 Noroeste 0 910.6 -0.6 17
2019-08-15 18:00:00 34.5 8 Noroeste 22 Noroeste 0 910.7 -0.8 17
2019-08-15 17:00:00 34.6 8 Noroeste 24 Noroeste 0 910.9 -1.1 16
2019-08-15 16:00:00 34 10 Noroeste 24 Oeste 0 911.2 -1.3 17
2019-08-15 15:00:00 33.4 7 Norte 30 Sudoeste 0 911.5 -1.4 18
2019-08-15 14:00:00 32.5 6 Noroeste 19 Oeste 0 912 -1 19
2019-08-15 13:00:00 31.4 5 Este 12 Sudeste 0 912.5 -0.5 20
2019-08-15 12:00:00 29.3 4 Noroeste 9 Oeste 0 912.9 0 25
2019-08-15 11:00:00 25.3 4 Noroeste 9 Noroeste 0 913 0.2 36
2019-08-15 10:00:00 21.5 4 Norte 8 Norte 0 913 0.4 41
2019-08-15 09:00:00 18.8 2 Oeste 5 Sudoeste 0 912.9 0.6 45
2019-08-15 08:00:00 15.9 0 Calma 5 Sudoeste 0 912.8 0.5 52
2019-08-15 07:00:00 16.1 2 Este 7 Sudoeste 0 912.6 0.2 49
2019-08-15 06:00:00 17.2 0 Calma 9 Norte 0 912.3 -0.1 48
2019-08-15 05:00:00 17.4 2 Oeste 6 Noroeste 0 912.3 -0.4 44
2019-08-15 04:00:00 18.1 3 Norte 7 Sudeste 0 912.4 -0.3 39
2019-08-15 03:00:00 18.8 3 Sudeste 8 Sur 0 912.4 -0.3 37
2019-08-15 02:00:00 19.6 2 Sur 4 Sur 0 912.7 0 35
2019-08-15 01:00:00 20.9 2 Oeste 6 Sudoeste 0 912.7 0.6 32
2019-08-15 00:00:00 22.7 2 Noroeste 7 Norte 0 912.7 1 30
2019-08-14 23:00:00 24.5 0 Calma 8 Norte 0 912.7 1.3 27
2019-08-14 22:00:00 26.6 0 Calma 10 Noroeste 0 912.1 0.6 24
2019-08-14 21:00:00 28.5 4 Noroeste 15 Oeste 0 911.7 0.2 21
2019-08-14 20:00:00 30.4 9 Noroeste 17 Noroeste 0 911.4 -0.4 18
2019-08-14 19:00:00 31.8 8 Noroeste 21 Noroeste 0 911.5 -0.6 18
2019-08-14 18:00:00 32.2 6 Noroeste 23 Noroeste 0 911.5 -1 18
2019-08-14 17:00:00 31.9 8 Noroeste 24 Noroeste 0 911.8 -1.1 18
2019-08-14 16:00:00 31.1 10 Noroeste 22 Noroeste 0 912.1 -1.2 19
2019-08-14 15:00:00 30.8 8 Noroeste 26 Noroeste 0 912.5 -1.1 21
2019-08-14 14:00:00 29.8 6 Noroeste 19 Oeste 0 912.9 -0.6 23
2019-08-14 13:00:00 28.1 5 Noroeste 14 Noroeste 0 913.3 -0.2 37
2019-08-14 12:00:00 25.6 6 Oeste 15 Noroeste 0 913.6 -0.1 36
2019-08-14 11:00:00 23.2 3 Sur 10 Sudoeste 0 913.5 0.2 57
2019-08-14 10:00:00 20.8 3 Norte 8 Norte 0 913.5 0.6 65
2019-08-14 09:00:00 17.8 3 Norte 11 Nordeste 0 913.7 1 75
2019-08-14 08:00:00 15.3 3 Sudoeste 5 Norte 0 913.3 0.3 79
2019-08-14 07:00:00 15.6 2 Sudeste 5 Norte 0 912.9 -0.1 77
2019-08-14 06:00:00 16.4 3 Norte 5 Norte 0 912.7 -0.5 82
2019-08-14 05:00:00 17 0 Calma 5 Norte 0 913 -0.1 74
2019-08-14 04:00:00 18 2 Norte 5 Sudeste 0 913 0.3 77
2019-08-14 03:00:00 18.8 4 Sudeste 10 Sudeste 0 913.2 0.4 77
2019-08-14 02:00:00 19.3 5 Sudeste 18 Sudeste 0 913.1 0.9 76
2019-08-14 01:00:00 20 8 Sudeste 21 Sur 0 912.7 0.9 70
2019-08-14 00:00:00 20.8 6 Sudeste 17 Sudeste 0 912.8 1.5 53
2019-08-13 23:00:00 21.9 0 Calma 8 Noroeste 0 912.2 1.3 33
2019-08-13 22:00:00 23.8 3 Oeste 11 Norte 0 911.8 1.1 29
2019-08-13 21:00:00 25.8 3 Noroeste 21 Noroeste 0 911.3 0.8 26
2019-08-13 20:00:00 27.6 6 Noroeste 23 Noroeste 0 910.9 0.2 23
2019-08-13 19:00:00 28.5 8 Noroeste 23 Noroeste 0 910.7 -0.6 24
2019-08-13 18:00:00 27.9 8 Noroeste 19 Noroeste 0 910.5 -1.2 27
2019-08-13 17:00:00 29.2 6 Noroeste 17 Oeste 0 910.7 -1.3 27
2019-08-13 16:00:00 27.1 6 Oeste 16 Noroeste 0 911.3 -1.1 33
2019-08-13 15:00:00 25.9 7 Oeste 24 Sudeste 0 911.7 -1 36
2019-08-13 14:00:00 26.4 10 Sur 25 Sur 0 912 -0.7 40
2019-08-13 13:00:00 24.9 9 Sur 25 Sudeste 0 912.4 -0.3 45
2019-08-13 12:00:00 23.3 9 Sur 21 Sudeste 0 912.7 0.3 49
2019-08-13 11:00:00 20.6 9 Sudeste 19 Sudeste 0 912.7 0.3 55
2019-08-13 10:00:00 19 8 Sur 15 Este 0 912.7 0.8 60
2019-08-13 09:00:00 17.8 3 Oeste 7 Oeste 0 912.4 0.7 56
2019-08-13 08:00:00 16.9 3 Sudeste 6 Nordeste 0 912.4 0.6 52
2019-08-13 07:00:00 16.1 2 Noroeste 8 Sudoeste 0 911.9 -0.2 54
2019-08-13 06:00:00 16.5 3 Oeste 13 Noroeste 0 911.7 -0.8 48
2019-08-13 05:00:00 17.1 4 Noroeste 11 Noroeste 0 911.8 -1.1 48
2019-08-13 04:00:00 17.2 3 Norte 9 Oeste 0 912.1 -0.5 47
2019-08-13 03:00:00 17.1 3 Norte 9 Norte 0 912.5 0.2 45
2019-08-13 02:00:00 17.4 5 Norte 12 Norte 0 912.9 1.4 43
2019-08-13 01:00:00 18.3 3 Este 10 Nordeste 0 912.6 2.2 40
2019-08-13 00:00:00 19.8 5 Este 23 Nordeste 0 912.3 2.6 36
2019-08-12 23:00:00 21 13 Nordeste 25 Nordeste 0 911.5 2.2 33
2019-08-12 22:00:00 22.7 12 Nordeste 23 Norte 0 910.4 1.3 25
2019-08-12 21:00:00 24.8 5 Noroeste 25 Norte 0 909.7 0.7 19
2019-08-12 20:00:00 26.5 9 Noroeste 32 Noroeste 0 909.3 0 18
2019-08-12 19:00:00 28 9 Noroeste 30 Noroeste 0 909.1 -0.7 16
2019-08-12 18:00:00 28.1 14 Noroeste 30 Noroeste 0 909 -1.1 17
2019-08-12 17:00:00 29 8 Noroeste 23 Noroeste 0 909.3 -0.9 16
2019-08-12 16:00:00 28.7 9 Noroeste 24 Norte 0 909.8 -0.8 17
2019-08-12 15:00:00 27.6 10 Noroeste 26 Noroeste 0 910.1 -0.7 21
2019-08-12 14:00:00 26.7 9 Oeste 26 Noroeste 0 910.2 -0.5 23
2019-08-12 13:00:00 25.9 8 Noroeste 17 Noroeste 0 910.6 0.3 26
2019-08-12 12:00:00 24.5 7 Norte 22 Norte 0 910.8 0.9 30
2019-08-12 11:00:00 23 8 Norte 23 Norte 0 910.7 1.3 33
2019-08-12 10:00:00 19.7 9 Norte 27 Norte 0 910.3 1.4 46
2019-08-12 09:00:00 17.2 9 Norte 23 Nordeste 0 909.9 1.1 53
2019-08-12 08:00:00 15.9 5 Norte 17 Noroeste 0 909.4 0.7 52
2019-08-12 07:00:00 16.2 6 Noroeste 17 Noroeste 0 908.9 -0.2 49
2019-08-12 06:00:00 16.3 6 Noroeste 14 Norte 0 908.8 -0.5 39
2019-08-12 05:00:00 16.9 4 Norte 8 Norte 0 908.7 -1 34
2019-08-12 04:00:00 18.2 3 Norte 8 Nordeste 0 909.1 -0.9 31
2019-08-12 03:00:00 19.5 2 Noroeste 5 Norte 0 909.3 -0.6 28
2019-08-12 02:00:00 20.4 2 Oeste 6 Sudeste 0 909.7 0 25
2019-08-12 01:00:00 21.1 3 Sudoeste 7 Oeste 0 910 0.9 21
2019-08-12 00:00:00 22.1 3 Noroeste 12 Oeste 0 909.9 1.3 20
2019-08-11 23:00:00 23.3 5 Noroeste 15 Noroeste 0 909.7 1.6 18
2019-08-11 22:00:00 24.9 4 Noroeste 16 Noroeste 0 909.1 1 26
2019-08-11 21:00:00 26.4 7 Oeste 26 Noroeste 0 908.6 0.4 24
2019-08-11 20:00:00 28.2 10 Noroeste 28 Oeste 0 908.1 -0.6 23
2019-08-11 19:00:00 29.5 11 Oeste 33 Oeste 0 908.1 -0.9 15
2019-08-11 18:00:00 30.6 10 Noroeste 26 Oeste 0 908.2 -0.9 18
2019-08-11 17:00:00 30.2 15 Noroeste 31 Oeste 0 908.7 -0.6 18
2019-08-11 16:00:00 30.2 13 Oeste 30 Noroeste 0 909 -0.7 18
2019-08-11 15:00:00 29.8 14 Oeste 31 Oeste 0 909.1 -0.7 18
2019-08-11 14:00:00 29 12 Oeste 29 Oeste 0 909.3 -0.4 21
2019-08-11 13:00:00 28 14 Oeste 27 Oeste 0 909.7 0.1 22
2019-08-11 12:00:00 27.2 15 Oeste 29 Oeste 0 909.8 0.1 24
2019-08-11 11:00:00 25.5 5 Sur 13 Sur 0 909.7 -0.2 38
2019-08-11 10:00:00 23 6 Sur 12 Sur 0 909.6 0.3 62
2019-08-11 09:00:00 21.4 5 Sudeste 10 Sur 0 909.7 0.7 73
2019-08-11 08:00:00 19.5 3 Sudeste 9 Sudeste 0 909.9 1.2 80
2019-08-11 07:00:00 19.7 4 Sur 9 Sudoeste 0 909.3 0.7 78
2019-08-11 06:00:00 20.4 5 Sudoeste 10 Sur 0 909 -0.1 76
2019-08-11 05:00:00 21.3 7 Sudoeste 19 Sur 0 908.7 -1 72
2019-08-11 04:00:00 22.5 10 Sur 25 Sudeste 0 908.6 -1.4 68
2019-08-11 03:00:00 22.8 9 Sur 20 Sur 0 909.1 -0.9 69
2019-08-11 02:00:00 23.7 10 Sudeste 16 Sudeste 0 909.7 -0.4 67
2019-08-11 01:00:00 24.7 9 Sur 18 Sur 0 910 -0.1 52
2019-08-11 00:00:00 24.9 7 Sudeste 16 Sudeste 0 910 0.1 40
2019-08-10 23:00:00 26.7 2 Sur 5 Este 0 910.1 0.3 36
2019-08-10 22:00:00 28.1 4 Sudeste 8 Sudoeste 0 910.1 -0.1 33
2019-08-10 21:00:00 29.3 4 Oeste 22 Oeste 0 909.9 -0.7 31
2019-08-10 20:00:00 30.6 11 Sudoeste 24 Sudoeste 0 909.8 -1.2 29
2019-08-10 19:00:00 32.3 6 Oeste 27 Oeste 0 910.2 -1.2 29
2019-08-10 18:00:00 32.7 10 Oeste 31 Sur 0 910.6 -1.2 28
2019-08-10 17:00:00 32.3 12 Oeste 26 Sudoeste 0 911 -1.1 29
2019-08-10 16:00:00 31.9 10 Sudoeste 28 Sudoeste 0 911.4 -1 29
2019-08-10 15:00:00 30.5 14 Sur 27 Sudeste 0 911.8 -0.9 32
2019-08-10 14:00:00 30 9 Oeste 23 Sudoeste 0 912.1 -0.7 34
2019-08-10 13:00:00 29.4 10 Oeste 21 Sudoeste 0 912.4 -0.3 35
2019-08-10 12:00:00 27.5 9 Noroeste 22 Sudoeste 0 912.7 0.1 43
2019-08-10 11:00:00 26 4 Noroeste 12 Noroeste 0 912.8 0.3 48
2019-08-10 10:00:00 23.5 4 Noroeste 10 Noroeste 0 912.7 0.6 58
2019-08-10 09:00:00 20.9 4 Norte 7 Norte 0 912.6 1 70
2019-08-10 08:00:00 18.2 4 Norte 8 Norte 0 912.5 1 77
2019-08-10 07:00:00 18.8 0 Calma 5 Norte 0 912.1 0.8 76
2019-08-10 06:00:00 19.2 3 Norte 9 Nordeste 0 911.6 0.2 74
2019-08-10 05:00:00 20.2 3 Noroeste 8 Norte 0 911.5 -0.1 71
2019-08-10 04:00:00 21.3 3 Noroeste 8 Norte 0 911.3 -0.2 67
2019-08-10 03:00:00 22.5 3 Norte 6 Nordeste 0 911.4 -0.1 64
2019-08-10 02:00:00 23.7 2 Noroeste 11 Norte 0 911.6 0.6 62
2019-08-10 01:00:00 24.5 3 Noroeste 13 Norte 0 911.5 0.8 59
2019-08-10 00:00:00 25.5 5 Noroeste 19 Noroeste 0 911.5 1.6 53
2019-08-09 23:00:00 26.7 6 Noroeste 19 Noroeste 0 911 1.4 47
2019-08-09 22:00:00 28 8 Noroeste 22 Oeste 0 910.7 1.2 38
2019-08-09 21:00:00 29.4 12 Oeste 27 Oeste 0 909.9 0.5 34
2019-08-09 20:00:00 31 13 Oeste 29 Noroeste 0 909.6 0 31
2019-08-09 19:00:00 32.6 12 Oeste 32 Sudoeste 0 909.5 -0.7 27
2019-08-09 18:00:00 32.7 13 Oeste 29 Oeste 0 909.4 -1.1 29
2019-08-09 17:00:00 33.4 10 Sudoeste 31 Oeste 0 909.6 -1.1 26
2019-08-09 16:00:00 32.7 13 Oeste 26 Noroeste 0 910.2 -0.6 27
2019-08-09 15:00:00 31.6 14 Oeste 28 Sudoeste 0 910.5 -0.2 30
2019-08-09 14:00:00 30.9 12 Oeste 32 Oeste 0 910.7 0 29
2019-08-09 13:00:00 30.2 9 Oeste 30 Sudoeste 0 910.8 0.3 30
2019-08-09 12:00:00 28.6 12 Oeste 24 Oeste 0 910.7 0.3 36
2019-08-09 11:00:00 26.8 6 Oeste 20 Oeste 0 910.7 0.7 43
2019-08-09 10:00:00 24 4 Oeste 7 Oeste 0 910.5 0.7 47
2019-08-09 09:00:00 21.2 0 Calma 4 Sudoeste 0 910.4 1 48
2019-08-09 08:00:00 17.7 2 Noroeste 6 Norte 0 910 0.4 56
2019-08-09 07:00:00 18.1 0 Calma 12 Norte 0 909.8 0.4 54
2019-08-09 06:00:00 19.2 6 Norte 10 Norte 0 909.4 0.2 53
2019-08-09 05:00:00 19.5 0 Calma 5 Oeste 0 909.6 0.4 51
2019-08-09 04:00:00 20.6 2 Oeste 6 Norte 0 909.4 0.4 46
2019-08-09 03:00:00 21.6 3 Sudoeste 5 Oeste 0 909.2 0.4 43
2019-08-09 02:00:00 23.1 0 Calma 5 Noroeste 0 909.2 0.5 40
2019-08-09 01:00:00 24.9 0 Calma 8 Noroeste 0 909 0.7 38
2019-08-09 00:00:00 26.2 3 Norte 7 Norte 0 908.8 0.9 35
2019-08-08 23:00:00 27.4 4 Sur 10 Este 0 908.7 0.6 32
2019-08-08 22:00:00 28.8 5 Sur 16 Sudoeste 0 908.3 0.2 30
2019-08-08 21:00:00 30.1 6 Sudoeste 23 Sudoeste 0 907.9 -0.3 28
2019-08-08 20:00:00 31.5 10 Oeste 24 Sudoeste 0 908.1 -0.4 27
2019-08-08 19:00:00 33.1 9 Oeste 26 Oeste 0 908.1 -0.7 25
2019-08-08 18:00:00 33.3 12 Oeste 26 Oeste 0 908.2 -0.8 26
2019-08-08 17:00:00 32.9 14 Sudoeste 32 Oeste 0 908.5 -0.6 26
2019-08-08 16:00:00 32.8 11 Sudoeste 29 Oeste 0 908.8 -0.8 27
2019-08-08 15:00:00 31.8 8 Sudoeste 23 Sudoeste 0 909 -0.8 29
2019-08-08 14:00:00 30.7 9 Oeste 22 Oeste 0 909.1 -0.6 29
2019-08-08 13:00:00 29 4 Sur 15 Oeste 0 909.6 -0.1 34
2019-08-08 12:00:00 27.3 8 Oeste 19 Oeste 0 909.8 0.1 34
2019-08-08 11:00:00 25.4 5 Norte 9 Nordeste 0 909.7 0.3 42
2019-08-08 10:00:00 22.5 3 Sur 7 Sudeste 0 909.7 0.5 47
2019-08-08 09:00:00 19.8 2 Este 4 Sudeste 0 909.7 0.7 53
2019-08-08 08:00:00 16.3 3 Sur 10 Norte 0 909.4 0.4 62
2019-08-08 07:00:00 16.9 4 Norte 10 Norte 0 909.2 -0.1 62
2019-08-08 06:00:00 18 3 Norte 12 Nordeste 0 909 -0.4 58
2019-08-08 05:00:00 18.1 5 Norte 11 Norte 0 909 -0.5 57
2019-08-08 04:00:00 18.9 3 Noroeste 8 Norte 0 909.3 -0.1 53
2019-08-08 03:00:00 20 2 Norte 5 Norte 0 909.4 0.1 50
2019-08-08 02:00:00 21.3 3 Noroeste 10 Noroeste 0 909.5 0.1 47
2019-08-08 01:00:00 22.3 3 Norte 7 Norte 0 909.4 0.7 44
2019-08-08 00:00:00 23.4 2 Noroeste 10 Oeste 0 909.3 1.4 42
2019-08-07 23:00:00 24.3 7 Noroeste 14 Oeste 0 909.4 1.2 41
2019-08-07 22:00:00 25 5 Oeste 20 Noroeste 0 908.7 1.5 39
2019-08-07 21:00:00 26.3 5 Noroeste 18 Noroeste 0 907.9 -0.1 33
2019-08-07 20:00:00 27.1 8 Noroeste 27 Oeste 0 908.2 0.1 29
2019-08-07 19:00:00 28.1 5 Norte 20 Noroeste 0 907.2 -0.8 27
2019-08-07 18:00:00 29.1 9 Noroeste 26 Noroeste 0 908 -0.1 26
2019-08-07 17:00:00 29.1 10 Noroeste 24 Oeste 0 908.1 0 25
2019-08-07 16:00:00 30.8 9 Noroeste 21 Noroeste 0 908 -0.2 23
2019-08-07 15:00:00 30.9 10 Noroeste 23 Noroeste 0 908.1 0 22
2019-08-07 14:00:00 30.3 7 Noroeste 18 Oeste 0 908.1 0.2 24
2019-08-07 13:00:00 27.8 9 Oeste 23 Oeste 0 908.2 0.5 26
2019-08-07 12:00:00 27.1 7 Oeste 17 Noroeste 0 908.1 0.8 27
2019-08-07 11:00:00 25.9 6 Oeste 15 Sudoeste 0 907.9 1.3 31
2019-08-07 10:00:00 21.8 2 Sur 5 Oeste 0 907.7 1.2 35
2019-08-07 09:00:00 19.4 2 Oeste 5 Sudoeste 0 907.3 1 37
2019-08-07 08:00:00 17.9 0 Calma 4 Norte 0 906.6 0.3 39
2019-08-07 07:00:00 17.9 0 Calma 5 Oeste 0 906.5 0.2 36
2019-08-07 06:00:00 18.3 0 Calma 4 Oeste 0 906.3 -0.1 33
2019-08-07 05:00:00 19.3 3 Sudoeste 4 Oeste 0 906.3 -0.2 29
2019-08-07 04:00:00 20.1 2 Norte 5 Norte 0 906.3 -0.6 28
2019-08-07 03:00:00 20.3 0 Calma 4 Oeste 0 906.4 -0.5 24
2019-08-07 02:00:00 21.5 0 Calma 5 Oeste 0 906.5 0 21
2019-08-07 01:00:00 23.2 2 Noroeste 6 Noroeste 0 906.9 0.8 19
2019-08-07 00:00:00 24.8 0 Calma 8 Oeste 0 906.9 0.8 17
2019-08-06 23:00:00 27.5 2 Nordeste 9 Sur 0 906.5 0.5 12
2019-08-06 22:00:00 29 4 Sudeste 14 Sudoeste 0 906.1 0 11
2019-08-06 21:00:00 31.1 6 Oeste 22 Sudoeste 0 906.1 -0.4 10
2019-08-06 20:00:00 32.8 8 Sudoeste 26 Sur 0 906 -0.9 10
2019-08-06 19:00:00 34.6 12 Sudoeste 36 Sudoeste 0 906.1 -1.2 10
2019-08-06 18:00:00 34.8 13 Sudoeste 30 Oeste 0 906.5 -1.4 11
2019-08-06 17:00:00 34.9 10 Oeste 29 Sudoeste 0 906.9 -1.3 11
2019-08-06 16:00:00 35.4 10 Sudoeste 28 Oeste 0 907.3 -1 10
2019-08-06 15:00:00 34.4 8 Oeste 24 Sudoeste 0 907.9 -0.8 10
2019-08-06 14:00:00 33.5 10 Sudoeste 23 Oeste 0 908.2 -0.9 13
2019-08-06 13:00:00 32.6 10 Sudoeste 28 Noroeste 0 908.3 -0.7 15
2019-08-06 12:00:00 31 8 Sudoeste 16 Oeste 0 908.7 -0.1 20
2019-08-06 11:00:00 28.1 5 Sudoeste 13 Sudoeste 0 909.1 0.5 32
2019-08-06 10:00:00 25.1 2 Sur 7 Oeste 0 909 0.4 50
2019-08-06 09:00:00 20.9 2 Oeste 5 Oeste 0 908.8 0.3 66
2019-08-06 08:00:00 18.7 0 Calma 5 Sudoeste 0 908.6 0 73
2019-08-06 07:00:00 19 0 Calma 5 Sudoeste 0 908.6 -0.1 54
2019-08-06 06:00:00 19.7 4 Oeste 7 Oeste 0 908.5 -0.4 53
2019-08-06 05:00:00 20.6 0 Calma 7 Oeste 0 908.6 -0.3 55
2019-08-06 04:00:00 21.9 0 Calma 7 Sudoeste 0 908.7 0.1 44
2019-08-06 03:00:00 22.7 0 Calma 6 Nordeste 0 908.9 0.7 36
2019-08-06 02:00:00 23.3 2 Nordeste 6 Noroeste 0 908.9 0.8 40
2019-08-06 01:00:00 23.6 4 Noroeste 10 Sudeste 0 908.6 0.9 27
2019-08-06 00:00:00 24.8 3 Sudoeste 6 Oeste 0 908.2 0.9 22
2019-08-05 23:00:00 27.2 2 Oeste 6 Norte 0 908.1 0.9 19
2019-08-05 22:00:00 29.8 0 Calma 12 Noroeste 0 907.7 0.5 16
2019-08-05 21:00:00 31.8 7 Noroeste 18 Sudoeste 0 907.3 -0.1 14
2019-08-05 20:00:00 33.9 7 Sudoeste 24 Noroeste 0 907.2 -0.6 12
2019-08-05 19:00:00 35.3 8 Oeste 26 Sudoeste 0 907.2 -1.2 12
2019-08-05 18:00:00 35.9 6 Sudoeste 24 Sudoeste 0 907.4 -1.4 12
2019-08-05 17:00:00 35.6 7 Sur 30 Sudoeste 0 907.8 -1.3 14
2019-08-05 16:00:00 35.2 8 Oeste 24 Sudoeste 0 908.4 -1.1 14
2019-08-05 15:00:00 34.7 10 Oeste 21 Oeste 0 908.8 -1 16
2019-08-05 14:00:00 34.1 12 Sudoeste 23 Sudoeste 0 909.1 -0.8 18
2019-08-05 13:00:00 32.6 6 Sudoeste 16 Sudoeste 0 909.5 -0.5 21
2019-08-05 12:00:00 30.7 4 Noroeste 9 Norte 0 909.8 -0.2 29
2019-08-05 11:00:00 27.7 3 Sudeste 6 Sur 0 909.9 -0.1 41
2019-08-05 10:00:00 24.2 3 Sudoeste 5 Oeste 0 910 0.3 51
2019-08-05 09:00:00 20.9 0 Calma 5 Oeste 0 910 0.4 59
2019-08-05 08:00:00 18.3 2 Sudeste 5 Sudoeste 0 910 0.3 65
2019-08-05 07:00:00 18.8 2 Sur 4 Sudoeste 0 909.7 -0.2 59
2019-08-05 06:00:00 19.7 0 Calma 5 Norte 0 909.6 -0.6 57
2019-08-05 05:00:00 20.7 2 Sudoeste 5 Oeste 0 909.7 -0.5 51
2019-08-05 04:00:00 21.7 0 Calma 3 Este 0 909.9 0 51
2019-08-05 03:00:00 22.3 2 Oeste 6 Noroeste 0 910.2 0.8 48
2019-08-05 02:00:00 23 2 Sudoeste 5 Sur 0 910.2 1 37
2019-08-05 01:00:00 23.6 4 Oeste 9 Norte 0 909.9 1.1 29
2019-08-05 00:00:00 25.5 3 Sudoeste 10 Norte 0 909.4 1.1 27
2019-08-04 23:00:00 28 3 Norte 8 Norte 0 909.2 1.2 24
2019-08-04 22:00:00 29.8 2 Sudoeste 10 Sudoeste 0 908.8 0.9 21
2019-08-04 21:00:00 31.6 6 Sudoeste 18 Oeste 0 908.3 0.3 19
2019-08-04 20:00:00 33.6 7 Oeste 19 Sudoeste 0 908 -0.3 17
2019-08-04 19:00:00 34.9 9 Oeste 23 Noroeste 0 907.9 -0.7 14
2019-08-04 18:00:00 35.2 9 Oeste 24 Oeste 0 908 -0.8 15
2019-08-04 17:00:00 35.4 12 Sudoeste 30 Sudoeste 0 908.3 -0.8 16
2019-08-04 16:00:00 34.9 13 Sudoeste 27 Sudoeste 0 908.6 -0.7 17
2019-08-04 15:00:00 34.8 8 Sudoeste 25 Oeste 0 908.8 -0.7 18
2019-08-04 14:00:00 33.7 12 Sudoeste 24 Oeste 0 909.1 -0.5 18
2019-08-04 13:00:00 32.7 3 Sudoeste 13 Norte 0 909.3 -0.5 25
2019-08-04 12:00:00 30.6 5 Sudoeste 10 Sudoeste 0 909.5 -0.4 28
2019-08-04 11:00:00 27.4 4 Oeste 9 Sudoeste 0 909.6 0 46
2019-08-04 10:00:00 24.3 4 Oeste 8 Oeste 0 909.8 0.5 58
2019-08-04 09:00:00 20.7 3 Sur 9 Sudoeste 0 909.9 0.9 68
2019-08-04 08:00:00 18.9 2 Este 5 Sudeste 0 909.6 0.7 74
2019-08-04 07:00:00 19.6 2 Norte 4 Nordeste 0 909.3 0.2 73
2019-08-04 06:00:00 20.5 0 Calma 6 Sudoeste 0 909 0 70
2019-08-04 05:00:00 21.4 3 Oeste 5 Oeste 0 908.9 -0.2 67
2019-08-04 04:00:00 22.4 3 Sudeste 11 Sudeste 0 909.1 0.2 64
2019-08-04 03:00:00 23.4 4 Sudeste 15 Sur 0 909 0.6 59
2019-08-04 02:00:00 24.4 6 Sudeste 17 Sudeste 0 909.1 1.1 56
2019-08-04 01:00:00 25.4 10 Sur 24 Sudeste 0 908.9 1.3 53
2019-08-04 00:00:00 26.4 11 Sudeste 21 Sudeste 0 908.4 1.2 38
2019-08-03 23:00:00 27.9 4 Sudeste 11 Sudeste 0 908 0.7 20
2019-08-03 22:00:00 29.8 3 Oeste 10 Oeste 0 907.6 0.1 18
2019-08-03 21:00:00 31.6 5 Oeste 19 Oeste 0 907.2 -0.5 16
2019-08-03 20:00:00 33.3 10 Sudoeste 24 Oeste 0 907.3 -1 14
2019-08-03 19:00:00 34.5 15 Sudoeste 27 Sudoeste 0 907.5 -1.2 15
2019-08-03 18:00:00 35.2 9 Sudoeste 26 Oeste 0 907.7 -1.4 16
2019-08-03 17:00:00 35 12 Sudoeste 30 Sudoeste 0 908.3 -1.1 16
2019-08-03 16:00:00 34.7 11 Sudoeste 23 Oeste 0 908.7 -0.9 18
2019-08-03 15:00:00 34.1 8 Sudoeste 23 Oeste 0 909.1 -0.6 18
2019-08-03 14:00:00 32.8 12 Oeste 22 Oeste 0 909.4 -0.4 20
2019-08-03 13:00:00 31.5 9 Sudoeste 18 Oeste 0 909.6 -0.1 25
2019-08-03 12:00:00 29.3 10 Sudeste 21 Sur 0 909.7 0 32
2019-08-03 11:00:00 26.8 11 Sudeste 24 Sur 0 909.8 0.4 40
2019-08-03 10:00:00 25.1 12 Sur 22 Sudeste 0 909.7 0.3 45
2019-08-03 09:00:00 22.4 0 Calma 3 Oeste 0 909.7 0.6 51
2019-08-03 08:00:00 19.7 0 Calma 5 Oeste 0 909.4 0.2 58
2019-08-03 07:00:00 20.3 0 Calma 7 Noroeste 0 909.4 0 56
2019-08-03 06:00:00 21.4 2 Noroeste 13 Sur 0 909.1 -0.6 52
2019-08-03 05:00:00 22.6 8 Sudeste 17 Sudeste 0 909.2 -0.4 49
2019-08-03 04:00:00 22.4 5 Sudoeste 12 Sur 0 909.4 -0.5 51
2019-08-03 03:00:00 23.4 6 Sur 18 Sudeste 0 909.7 0.1 51
2019-08-03 02:00:00 23.8 9 Sudeste 19 Sudeste 0 909.6 0.4 50
2019-08-03 01:00:00 24.7 9 Sur 21 Sudeste 0 909.9 1.2 49
2019-08-03 00:00:00 25.4 10 Sudeste 21 Sur 0 909.6 1.2 43
2019-08-02 23:00:00 26.5 2 Noroeste 6 Noroeste 0 909.2 0.8 22
2019-08-02 22:00:00 29.1 3 Norte 10 Noroeste 0 908.7 0.4 18
2019-08-02 21:00:00 31.1 5 Oeste 16 Noroeste 0 908.4 -0.1 16
2019-08-02 20:00:00 33.1 6 Oeste 24 Oeste 0 908.4 -0.2 14
2019-08-02 19:00:00 34.6 10 Oeste 19 Oeste 0 908.3 -0.8 13
2019-08-02 18:00:00 34.9 9 Sudoeste 24 Oeste 0 908.5 -0.9 13
2019-08-02 17:00:00 35.2 5 Noroeste 28 Sudoeste 0 908.6 -0.9 13
2019-08-02 16:00:00 34.5 9 Sur 23 Oeste 0 909.1 -0.6 14
2019-08-02 15:00:00 33.7 11 Sudoeste 27 Noroeste 0 909.4 -0.4 16
2019-08-02 14:00:00 32.4 9 Oeste 27 Sudoeste 0 909.5 -0.2 19
2019-08-02 13:00:00 31.5 10 Sudoeste 24 Oeste 0 909.7 -0.1 22
2019-08-02 12:00:00 29.6 4 Sur 11 Sudoeste 0 909.8 0.2 31
2019-08-02 11:00:00 26.5 4 Sudeste 12 Sudoeste 0 909.7 0.5 44
2019-08-02 10:00:00 23.2 3 Sudoeste 6 Sudoeste 0 909.8 0.9 53
2019-08-02 09:00:00 19.7 2 Sudeste 4 Nordeste 0 909.6 1 57
2019-08-02 08:00:00 16.9 0 Calma 3 Oeste 0 909.2 0.4 61
2019-08-02 07:00:00 17.3 2 Nordeste 4 Norte 0 908.9 0.2 59
2019-08-02 06:00:00 17.7 2 Sudoeste 6 Norte 0 908.6 -0.1 51
2019-08-02 05:00:00 18.4 0 Calma 5 Este 0 908.8 0 47
2019-08-02 04:00:00 19.1 2 Noroeste 5 Sudoeste 0 908.7 0.3 41
2019-08-02 03:00:00 20 3 Oeste 6 Norte 0 908.7 0.5 38
2019-08-02 02:00:00 21.1 2 Norte 6 Nordeste 0 908.8 0.6 36
2019-08-02 01:00:00 22.5 0 Calma 6 Noroeste 0 908.4 1.1 34
2019-08-02 00:00:00 24.2 3 Norte 13 Norte 0 908.2 1.3 30
2019-08-01 23:00:00 26.5 0 Calma 7 Norte 0 908.2 1.6 28
2019-08-01 22:00:00 28.7 3 Noroeste 11 Oeste 0 907.3 0.8 24
2019-08-01 21:00:00 30.4 5 Oeste 19 Oeste 0 906.9 0.2 22
2019-08-01 20:00:00 32 8 Oeste 20 Oeste 0 906.6 -0.2 20
2019-08-01 19:00:00 32.8 14 Sudoeste 26 Sudoeste 0 906.5 -0.7 20
2019-08-01 18:00:00 33.2 11 Oeste 23 Oeste 0 906.7 -0.9 21
2019-08-01 17:00:00 32.8 9 Sur 23 Sudoeste 0 906.8 -1.1 25
2019-08-01 16:00:00 32.5 8 Oeste 26 Sudoeste 0 907.2 -0.9 28
2019-08-01 15:00:00 31.7 5 Sudoeste 22 Sudoeste 0 907.6 -0.6 28
2019-08-01 14:00:00 30.1 7 Oeste 17 Sur 0 907.9 -0.3 33
2019-08-01 13:00:00 27.9 6 Sur 19 Sudeste 0 908.1 -0.1 42
2019-08-01 12:00:00 25.4 10 Sudeste 20 Sudeste 0 908.2 0.1 48
2019-08-01 11:00:00 23.3 9 Sur 19 Sudeste 0 908.2 0.4 54
2019-08-01 10:00:00 21.5 9 Sur 21 Sur 0 908.2 0.6 59
2019-08-01 09:00:00 18.9 8 Sur 19 Sudeste 0 908.1 0.6 72
2019-08-01 08:00:00 17 10 Sur 19 Sur 0 907.8 0.4 80
2019-08-01 07:00:00 17 11 Sur 19 Sur 0 907.6 0 76
2019-08-01 06:00:00 17.6 10 Sur 20 Sudeste 0 907.5 -0.5 72
2019-08-01 05:00:00 18.7 9 Sur 23 Sudeste 0 907.4 -0.9 61
2019-08-01 04:00:00 18.2 8 Sur 18 Sur 0 907.6 -1.4 68
2019-08-01 03:00:00 18.3 4 Sudeste 17 Sur 0 908 -0.8 76
2019-08-01 02:00:00 18.9 8 Sudeste 21 Sudeste 0 908.3 -0.3 78
2019-08-01 01:00:00 19.7 9 Sur 21 Sur 0 909 0.7 75
2019-08-01 00:00:00 20.9 10 Sudeste 25 Sur 0 908.8 0.7 70
2019-07-31 23:00:00 22.2 8 Sudeste 19 Sudeste 0 908.6 0.4 64
2019-07-31 22:00:00 23.3 6 Sudeste 15 Sur 0 908.3 0.1 60
2019-07-31 21:00:00 24.6 7 Sudeste 27 Sudeste 0 908.1 -0.1 56
2019-07-31 20:00:00 26.1 11 Sudeste 31 Sudeste 0 908.2 -0.4 51
2019-07-31 19:00:00 27.2 16 Sudeste 37 Sur 0 908.2 -0.7 48
2019-07-31 18:00:00 27.9 14 Sudeste 34 Sur 0 908.2 -1.1 46
2019-07-31 17:00:00 29.5 14 Sudeste 34 Sudeste 0 908.6 -0.8 38
2019-07-31 16:00:00 29.2 17 Sudeste 36 Sur 0 908.9 -0.9 37
2019-07-31 15:00:00 28.9 15 Sur 35 Sudeste 0 909.3 -0.8 37
2019-07-31 14:00:00 28.2 14 Sudeste 35 Sur 0 909.4 -0.7 39
2019-07-31 13:00:00 26.9 15 Sudeste 42 Sur 0 909.8 0 39
2019-07-31 12:00:00 25.5 17 Sudeste 35 Sudeste 0 910.1 1.1 44
2019-07-31 11:00:00 24.2 17 Sudeste 37 Sur 0 910.1 0.6 50
2019-07-31 10:00:00 23.7 14 Sur 22 Sur 0 909.8 -0.6 48
2019-07-31 09:00:00 21.7 6 Sudeste 18 Sudeste 0 909 -1.3 51
2019-07-31 08:00:00 18.1 5 Este 18 Sudeste 0 909.5 -0.1 68
2019-07-31 07:00:00 17.5 10 Sudeste 21 Sudeste 0 910.4 0.9 76
2019-07-31 06:00:00 18.3 11 Sur 24 Sur 0 910.3 0.8 68
2019-07-31 05:00:00 19.2 6 Sudeste 17 Sudeste 0 909.6 -0.4 63
2019-07-31 04:00:00 19.9 4 Sudeste 13 Sur 0 909.5 -0.4 66
2019-07-31 03:00:00 20.3 5 Sur 14 Sur 0 909.5 -0.1 68
2019-07-31 02:00:00 21 5 Sur 19 Sudeste 0 910 0.7 65
2019-07-31 01:00:00 21.9 8 Sudeste 26 Sudeste 0 909.9 1.6 60
2019-07-31 00:00:00 23.2 8 Sudeste 24 Sudeste 0 909.6 1.8 61
2019-07-30 23:00:00 24.3 14 Sudeste 26 Sur 0 909.3 1.7 55
2019-07-30 22:00:00 27 5 Nordeste 12 Noroeste 0 908.3 0.8 20
2019-07-30 21:00:00 29 6 Noroeste 17 Oeste 0 907.8 -0.1 16
2019-07-30 20:00:00 31 8 Oeste 19 Noroeste 0 907.6 -0.5 13
2019-07-30 19:00:00 32.3 5 Sudoeste 18 Sudoeste 0 907.5 -0.7 14
2019-07-30 18:00:00 32.8 9 Sudoeste 24 Oeste 0 907.9 -0.8 14
2019-07-30 17:00:00 32.2 9 Sur 25 Oeste 0 908.1 -0.9 14
2019-07-30 16:00:00 32 9 Noroeste 23 Oeste 0 908.2 -1.1 15
2019-07-30 15:00:00 31.2 9 Oeste 23 Sudoeste 0 908.7 -0.9 17
2019-07-30 14:00:00 30.4 12 Oeste 22 Oeste 0 909 -0.5 19
2019-07-30 13:00:00 28.7 6 Sudeste 17 Sudoeste 0 909.3 0 23
2019-07-30 12:00:00 27 3 Noroeste 10 Sudoeste 0 909.6 0.5 25
2019-07-30 11:00:00 24.5 4 Oeste 13 Nordeste 0 909.5 1 27
2019-07-30 10:00:00 21.4 7 Norte 19 Norte 0 909.3 1 32
2019-07-30 09:00:00 17.5 3 Norte 10 Norte 0 909.1 1.2 40
2019-07-30 08:00:00 14.5 2 Sudoeste 6 Sudoeste 0 908.5 0.8 45
2019-07-30 07:00:00 15.3 3 Sudeste 10 Noroeste 0 908.3 0.8 44
2019-07-30 06:00:00 15.9 5 Oeste 14 Noroeste 0 907.9 0.3 42
2019-07-30 05:00:00 16.6 6 Norte 14 Nordeste 0 907.7 0.3 40
2019-07-30 04:00:00 17.7 2 Norte 5 Norte 0 907.5 0.1 37
2019-07-30 03:00:00 18.9 0 Calma 4 Oeste 0 907.6 0.5 34
2019-07-30 02:00:00 20.7 0 Calma 4 Noroeste 0 907.4 0.4 31
2019-07-30 01:00:00 22.2 0 Calma 12 Norte 0 907.4 1.3 28
2019-07-30 00:00:00 24.2 5 Norte 11 Norte 0 907.1 1.7 24
2019-07-29 23:00:00 25.4 3 Noroeste 14 Noroeste 0 907 1.8 20
2019-07-29 22:00:00 27.2 4 Noroeste 19 Noroeste 0 906.1 1.1 19
2019-07-29 21:00:00 29 9 Noroeste 27 Oeste 0 905.4 0.1 20
2019-07-29 20:00:00 30.5 11 Noroeste 26 Oeste 0 905.2 -0.4 19
2019-07-29 19:00:00 31.7 10 Oeste 25 Oeste 0 905 -0.9 21
2019-07-29 18:00:00 32.1 9 Oeste 26 Oeste 0 905.3 -0.7 22
2019-07-29 17:00:00 32 12 Oeste 29 Sudoeste 0 905.6 -0.7 22
2019-07-29 16:00:00 31.4 12 Sudoeste 28 Sudoeste 0 905.9 -0.7 23
2019-07-29 15:00:00 30.9 11 Sudoeste 27 Sudoeste 0 906 -0.6 25
2019-07-29 14:00:00 30 12 Oeste 29 Oeste 0 906.3 -0.2 27
2019-07-29 13:00:00 29 12 Sudoeste 27 Sur 0 906.6 0.1 28
2019-07-29 12:00:00 28.1 7 Sudoeste 15 Sudoeste 0 906.6 0.1 29
2019-07-29 11:00:00 25.7 5 Sur 14 Sudoeste 0 906.5 0.2 38
2019-07-29 10:00:00 21.8 2 Oeste 6 Norte 0 906.5 0.5 45
2019-07-29 09:00:00 18 0 Calma 4 Sur 0 906.5 0.8 51
2019-07-29 08:00:00 15 2 Sudoeste 4 Sudoeste 0 906.3 0.6 53
2019-07-29 07:00:00 15.2 0 Calma 3 Sur 0 906 0.4 48
2019-07-29 06:00:00 15.8 0 Calma 5 Norte 0 905.7 0 47
2019-07-29 05:00:00 16.2 0 Calma 5 Nordeste 0 905.7 0 43
2019-07-29 04:00:00 16.5 0 Calma 10 Norte 0 905.6 0 41
2019-07-29 03:00:00 17.2 2 Nordeste 9 Norte 0 905.7 0.1 40
2019-07-29 02:00:00 18.3 2 Oeste 6 Norte 0 905.7 0.1 36
2019-07-29 01:00:00 19.6 3 Sudoeste 9 Norte 0 905.6 0.4 34
2019-07-29 00:00:00 21.7 2 Oeste 5 Norte 0 905.6 1 30
2019-07-28 23:00:00 23.5 2 Noroeste 8 Oeste 0 905.6 1.3 28
2019-07-28 22:00:00 24.8 4 Noroeste 14 Oeste 0 905.2 1.2 26
2019-07-28 21:00:00 26.5 7 Oeste 19 Noroeste 0 904.6 0.7 23
2019-07-28 20:00:00 28.4 5 Noroeste 19 Noroeste 0 904.3 0 19
2019-07-28 19:00:00 29.8 6 Noroeste 23 Noroeste 0 904 -0.7 17
2019-07-28 18:00:00 29.1 10 Noroeste 25 Noroeste 0 903.9 -1.1 18
2019-07-28 17:00:00 29.5 8 Noroeste 24 Nordeste 0 904.3 -0.9 18
2019-07-28 16:00:00 28.3 7 Noroeste 21 Noroeste 0 904.7 -0.8 19
2019-07-28 15:00:00 26.7 9 Noroeste 28 Oeste 0 905 -0.6 18
2019-07-28 14:00:00 26.4 12 Noroeste 30 Noroeste 0 905.2 -0.7 20
2019-07-28 13:00:00 24.3 15 Oeste 28 Oeste 0 905.5 -0.7 27
2019-07-28 12:00:00 22.7 9 Noroeste 22 Noroeste 0 905.6 -0.4 34
2019-07-28 11:00:00 20.9 6 Noroeste 15 Noroeste 0 905.9 0 41
2019-07-28 10:00:00 18.8 4 Noroeste 12 Nordeste 0 906.2 0.8 46
2019-07-28 09:00:00 15.4 7 Norte 17 Norte 0 906 1.1 58
2019-07-28 08:00:00 13 3 Noroeste 10 Nordeste 0 905.9 1 67
2019-07-28 07:00:00 13.2 4 Noroeste 21 Norte 0 905.4 0.4 67
2019-07-28 06:00:00 14 8 Norte 22 Norte 0 904.9 0.1 64
2019-07-28 05:00:00 14.8 8 Norte 20 Norte 0 904.9 0.2 64
2019-07-28 04:00:00 15.9 4 Norte 13 Norte 0 905 0.5 61
2019-07-28 03:00:00 16.7 3 Noroeste 12 Nordeste 0 904.8 0.5 58
2019-07-28 02:00:00 18 5 Norte 22 Norte 0 904.7 1 54
2019-07-28 01:00:00 18.9 4 Norte 21 Nordeste 0 904.5 1.5 49
2019-07-28 00:00:00 20.1 8 Norte 19 Norte 0 904.3 2 40
2019-07-27 23:00:00 21.2 6 Norte 24 Norte 0 903.7 2 36
2019-07-26 12:00:00 27 4 Noroeste 14 Oeste 0 906.9 0 37
2019-07-26 11:00:00 24.3 5 Sudoeste 10 Oeste 0 907.1 0.1 43
2019-07-26 10:00:00 23.6 4 Sur 10 Oeste 0 907.2 0.2 43
2019-07-26 09:00:00 22.3 5 Sudoeste 12 Sudoeste 0 906.9 0 45
2019-07-26 08:00:00 21.6 3 Sur 7 Oeste 0 907 0.1 46
2019-07-26 07:00:00 21.6 3 Sudeste 9 Sudoeste 0 907 -0.3 45
2019-07-26 06:00:00 21.9 6 Sur 13 Sur 0 906.9 -0.8 45
2019-07-26 05:00:00 22.9 7 Sur 19 Sur 0 906.9 -1.2 41
2019-07-26 04:00:00 22.6 6 Sur 14 Sur 0 907.3 -1.2 45
2019-07-26 03:00:00 23.7 7 Sur 13 Sudeste 0 907.7 -0.9 42
2019-07-26 02:00:00 24.8 5 Sudeste 16 Sur 0 908.1 -0.2 40
2019-07-26 01:00:00 26.4 6 Sudeste 17 Sudeste 0 908.5 1 38
2019-07-26 00:00:00 27.4 7 Sudeste 24 Sudeste 0 908.6 1.6 37
2019-07-25 23:00:00 28.5 10 Sudeste 27 Sudeste 0 908.3 1.4 35
2019-07-25 22:00:00 30.3 12 Sur 21 Sur 0 907.5 0.6 21
2019-07-25 21:00:00 31.7 7 Sur 18 Sur 0 907 -0.2 20
2019-07-25 20:00:00 33.2 10 Sur 22 Sudoeste 0 906.9 -0.8 18
2019-07-25 19:00:00 34.3 12 Sudoeste 26 Oeste 0 906.9 -1.4 17
2019-07-25 18:00:00 34.5 11 Sur 26 Sur 0 907.2 -1.5 19
2019-07-25 17:00:00 36.1 11 Sudoeste 29 Sudoeste 0 907.7 -1.5 19
2019-07-25 16:00:00 35.2 13 Sur 24 Sudoeste 0 908.3 -1.3 20
2019-07-25 15:00:00 34.9 8 Sur 24 Sudeste 0 908.7 -1.2 21
2019-07-25 14:00:00 33.3 11 Sur 25 Sudoeste 0 909.2 -0.9 23
2019-07-25 13:00:00 32.3 9 Sur 20 Sudeste 0 909.6 -0.6 25
2019-07-25 12:00:00 30.5 9 Sur 21 Sudeste 0 909.9 -0.1 28
2019-07-25 11:00:00 28.3 8 Sur 19 Sudeste 0 910.1 0.3 30
2019-07-25 10:00:00 26.3 10 Sudeste 21 Sur 0 910.2 0.6 32
2019-07-25 09:00:00 24.2 7 Sur 14 Sudeste 0 910 0.7 35
2019-07-25 08:00:00 22.8 8 Sudeste 22 Sur 0 909.8 0.5 37
2019-07-25 07:00:00 23.2 9 Sur 22 Sudeste 0 909.6 0.1 36
2019-07-25 06:00:00 23.8 12 Sudeste 30 Sudeste 0 909.3 -0.5 33
2019-07-25 05:00:00 24.4 14 Sudeste 28 Sur 0 909.3 -1 33
2019-07-25 04:00:00 24.9 12 Sudeste 27 Sudeste 0 909.5 -1 31
2019-07-25 03:00:00 24.9 10 Sudeste 27 Sudeste 0 909.8 -0.5 31
2019-07-25 02:00:00 25.3 13 Sudeste 27 Sudeste 0 910.3 0.1 31
2019-07-25 01:00:00 25.8 10 Sudeste 27 Sudeste 0 910.5 0.9 31
2019-07-25 00:00:00 26.7 12 Sudeste 31 Sur 0 910.3 1.3 32
2019-07-24 23:00:00 27.6 8 Sudeste 26 Sudeste 0 910.2 1.6 31
2019-07-24 22:00:00 29.4 10 Sudeste 31 Sudeste 0 909.6 1.1 28
2019-07-24 21:00:00 31.5 15 Sudeste 38 Sudeste 0 909 0.2 23
2019-07-24 20:00:00 33.6 17 Sur 33 Sur 0 908.6 -0.7 18
2019-07-24 19:00:00 35.3 16 Sur 35 Sur 0 908.5 -1.2 16
2019-07-24 18:00:00 36.3 15 Sur 31 Sudeste 0 908.8 -1.4 17
2019-07-24 17:00:00 35.8 11 Sudeste 33 Sur 0 909.3 -1.3 17
2019-07-24 16:00:00 35.8 13 Sur 35 Este 0 909.7 -1.3 16
2019-07-24 15:00:00 35.2 11 Sudeste 31 Sudeste 0 910.2 -1.1 16
2019-07-24 14:00:00 34.5 16 Sudeste 31 Sur 0 910.6 -0.9 17
2019-07-24 13:00:00 33.2 16 Sur 34 Sur 0 911 -0.6 19
2019-07-24 12:00:00 31.8 12 Sur 25 Sur 0 911.3 -0.3 22
2019-07-24 11:00:00 30 15 Sudeste 26 Sur 0 911.5 0.1 23
2019-07-24 10:00:00 26.4 4 Sur 9 Sudoeste 0 911.6 0.4 32
2019-07-24 09:00:00 21.9 2 Noroeste 7 Oeste 0 911.6 0.5 44
2019-07-24 08:00:00 20.6 0 Calma 5 Norte 0 911.4 0.1 46
2019-07-24 07:00:00 21 0 Calma 7 Sudoeste 0 911.2 -0.4 45
2019-07-24 06:00:00 22.1 2 Noroeste 9 Oeste 0 911.1 -1.6 43
2019-07-24 05:00:00 23.1 4 Sudoeste 13 Oeste 0 911.3 -1.5 40
2019-07-24 04:00:00 24.5 5 Nordeste 13 Este 0 911.6 -0.7 35
2019-07-24 03:00:00 25 3 Norte 9 Noroeste 0 912.7 0.7 35
2019-07-24 02:00:00 25.2 3 Norte 18 Norte 0 912.8 -0.2 34
2019-07-24 01:00:00 25.9 5 Sudeste 14 Sudeste 0 912.3 0.3 33
2019-07-24 00:00:00 27.1 3 Este 12 Sudeste 0 912 1.3 27
2019-07-23 23:00:00 27.9 6 Sur 21 Sudoeste 0 913 2.9 26
2019-07-23 22:00:00 29.3 8 Sudeste 28 Sudeste 0 912 2.1 26
2019-07-23 21:00:00 31.3 16 Sur 36 Sur 0 910.7 0.4 25
2019-07-23 20:00:00 33.5 19 Sur 34 Sur 0 910.1 -0.8 22
2019-07-23 19:00:00 35 16 Sur 36 Sur 0 909.9 -1.5 18
2019-07-23 18:00:00 34.8 13 Sudeste 30 Sur 0 910.3 -1.3 18
2019-07-23 17:00:00 35.5 15 Sur 35 Sudeste 0 910.9 -1 16
2019-07-23 16:00:00 35.7 14 Sur 37 Sudeste 0 911.4 -1 15
2019-07-23 15:00:00 35.3 17 Sur 39 Sudeste 0 911.6 -1.3 15
2019-07-23 14:00:00 34.4 17 Sudeste 35 Sur 0 911.9 -1.3 17
2019-07-23 13:00:00 33.2 14 Sur 28 Sudeste 0 912.4 -1.1 19
2019-07-23 12:00:00 31.3 15 Sur 29 Sur 0 912.9 -0.6 21
2019-07-23 11:00:00 29.2 13 Sur 22 Sur 0 913.2 -0.1 24
2019-07-23 10:00:00 26.7 5 Sudoeste 13 Sudoeste 0 913.5 -0.1 27
2019-07-23 09:00:00 23.4 3 Norte 18 Sudeste 0 913.5 0.1 30
2019-07-23 08:00:00 22.2 9 Sudeste 15 Sur 0 913.3 0.2 31
2019-07-23 07:00:00 21.1 5 Sudeste 9 Sudeste 0 913.6 0.4 30
2019-07-23 06:00:00 22.4 5 Sur 18 Sudeste 0 913.4 -0.2 27
2019-07-23 05:00:00 24.2 10 Sur 32 Sur 0 913.1 -0.8 24
2019-07-23 04:00:00 25.5 12 Sudeste 29 Sur 0 913.2 -0.9 23
2019-07-23 03:00:00 26 12 Sudeste 31 Sudeste 0 913.6 -0.7 22
2019-07-23 02:00:00 26.3 13 Sudeste 35 Sudeste 0 913.9 -0.3 22
2019-07-23 01:00:00 26.6 14 Sudeste 36 Sudeste 0 914.1 0.3 22
2019-07-23 00:00:00 26.5 13 Sudeste 35 Sudeste 0 914.3 0.7 28
2019-07-22 23:00:00 26.9 12 Sudeste 33 Sudeste 0 914.2 1.2 28
2019-07-22 22:00:00 28 10 Sudeste 32 Sudeste 0 913.8 0.6 31
2019-07-22 21:00:00 30.1 13 Sudeste 31 Sudeste 0 913.6 0 29
2019-07-22 20:00:00 32 15 Sudeste 38 Sudeste 0 913 -0.8 26
2019-07-22 19:00:00 33.5 15 Sur 37 Sudeste 0 913.2 -1 24
2019-07-22 18:00:00 34.2 18 Sudeste 37 Sur 0 913.6 -0.7 22
2019-07-22 17:00:00 34.8 17 Sur 35 Sudeste 0 913.8 -1 19
2019-07-22 16:00:00 34.7 17 Sur 35 Sur 0 914.2 -0.9 17
2019-07-22 15:00:00 34.6 14 Sur 35 Sudeste 0 914.3 -1.1 16
2019-07-22 14:00:00 33.4 18 Sur 37 Sudeste 0 914.8 -0.7 16
2019-07-22 13:00:00 32.3 17 Sur 31 Sudeste 0 915.1 -0.3 16
2019-07-22 12:00:00 30.3 16 Sudeste 32 Sudeste 0 915.4 0.1 17
2019-07-22 11:00:00 28.6 17 Sudeste 31 Sudeste 0 915.5 0.4 17
2019-07-22 10:00:00 26.7 4 Sudoeste 11 Sur 0 915.4 0.4 23
2019-07-22 09:00:00 22.6 3 Noroeste 6 Noroeste 0 915.3 0.5 29
2019-07-22 08:00:00 20.7 2 Noroeste 7 Norte 0 915.1 0.3 33
2019-07-22 07:00:00 21 3 Noroeste 7 Noroeste 0 915 0.1 29
2019-07-22 06:00:00 21 3 Sudoeste 9 Este 0 914.8 -0.5 30
2019-07-22 05:00:00 21.7 4 Sur 14 Sur 0 914.8 -0.9 29
2019-07-22 04:00:00 23.2 9 Sudeste 29 Sudeste 0 914.9 -0.9 27
2019-07-22 03:00:00 24 13 Sudeste 29 Sudeste 0 915.3 -0.4 24
2019-07-22 02:00:00 24.1 13 Sur 33 Sudeste 0 915.7 0.6 27
2019-07-22 01:00:00 24.4 11 Sudeste 26 Sudeste 0 915.8 1.6 26
2019-07-22 00:00:00 24.8 10 Sudeste 22 Este 0 915.7 2.1 30
2019-07-21 23:00:00 25.9 10 Sudeste 27 Sudeste 0 915.1 1.8 30
2019-07-21 22:00:00 27.3 6 Sudeste 29 Sudeste 0 914.2 1.1 32
2019-07-21 21:00:00 28.9 14 Sudeste 33 Sudeste 0 913.6 0.8 29
2019-07-21 20:00:00 30.6 15 Sur 36 Sudeste 0 913.3 0.4 28
2019-07-21 19:00:00 32.7 18 Sudeste 37 Sur 0 913.1 -0.1 26
2019-07-21 18:00:00 34.1 15 Sudeste 30 Sudeste 0 912.8 -0.4 24
2019-07-21 17:00:00 34.7 15 Sur 28 Sur 0 912.9 -0.6 24
2019-07-21 16:00:00 34.8 15 Sudeste 31 Sur 0 913.2 -0.5 23
2019-07-21 15:00:00 34.6 12 Sudeste 26 Sudeste 0 913.2 -0.5 20
2019-07-21 14:00:00 33.3 14 Sudeste 28 Sudeste 0 913.5 0.1 22
2019-07-21 13:00:00 32.1 13 Sudeste 27 Sur 0 913.7 0.3 24
2019-07-21 12:00:00 30.5 16 Sudeste 37 Sur 0 913.7 0.5 26
2019-07-21 11:00:00 28.3 15 Sudeste 35 Sudeste 0 913.4 0.8 30
2019-07-21 10:00:00 26.7 15 Sudeste 28 Sur 0 913.4 1.1 34
2019-07-21 09:00:00 25.4 13 Sudeste 31 Sur 0 913.2 1 37
2019-07-21 08:00:00 24.4 10 Sudeste 27 Sudeste 0 912.6 0.5 37
2019-07-21 07:00:00 24 13 Sudeste 24 Sudeste 0 912.3 -0.2 38
2019-07-21 06:00:00 23.6 13 Sudeste 28 Sudeste 0 912.2 -0.4 39
2019-07-21 05:00:00 23.4 15 Sudeste 33 Sudeste 0 912.1 -0.7 39
2019-07-21 04:00:00 22.6 10 Sur 25 Sur 0 912.5 -0.1 50
2019-07-21 03:00:00 22.6 10 Sur 25 Sur 0 912.6 0.4 49
2019-07-21 02:00:00 23.7 13 Sur 32 Sudeste 0 912.8 1 47
2019-07-21 01:00:00 24.5 15 Sur 30 Sur 0 912.6 2 45
2019-07-21 00:00:00 25.2 15 Sudeste 28 Sur 0 912.2 2.3 43
2019-07-20 23:00:00 26.6 15 Sudeste 33 Sudeste 0 911.8 2.5 39
2019-07-20 22:00:00 28.4 13 Sudeste 30 Sur 0 910.6 1.5 35
2019-07-20 21:00:00 31.1 13 Sudeste 30 Sudeste 0 909.9 0.9 30
2019-07-20 20:00:00 34.2 10 Sur 22 Sur 0 909.3 0.2 18
2019-07-20 19:00:00 35.6 12 Sudoeste 36 Sur 0 909.1 -0.3 16
2019-07-20 18:00:00 36.4 8 Sudoeste 26 Sudoeste 0 909 -0.6 16
2019-07-20 17:00:00 36.4 11 Sur 22 Oeste 0 909.1 -0.8 16
2019-07-20 16:00:00 36 10 Sudoeste 23 Sudoeste 0 909.4 -0.8 16
2019-07-20 15:00:00 34.8 10 Sur 22 Sur 0 909.6 -0.7 19
2019-07-20 14:00:00 33.6 12 Sur 27 Sudoeste 0 909.9 -0.2 20
2019-07-20 13:00:00 32 13 Sur 28 Sudoeste 0 910.2 0 22
2019-07-20 12:00:00 29.9 10 Sur 29 Sur 0 910.3 0.5 29
2019-07-20 11:00:00 27.9 14 Sur 29 Sudeste 0 910.1 0.6 32
2019-07-20 10:00:00 25.7 16 Sudeste 35 Sudeste 0 910.2 0.9 37
2019-07-20 09:00:00 23.6 17 Sudeste 33 Sur 0 909.8 0.6 44
2019-07-20 08:00:00 22 17 Sudeste 33 Sudeste 0 909.5 0.7 48
2019-07-20 07:00:00 21.5 13 Sudeste 26 Sudeste 0 909.3 0.6 54
2019-07-20 06:00:00 21.1 8 Sudeste 23 Sudeste 0 909.2 0.4 59
2019-07-20 05:00:00 22.1 13 Sudeste 27 Sudeste 0 908.8 -0.1 56
2019-07-20 04:00:00 22.3 9 Sudeste 24 Sur 0 908.7 -0.3 56
2019-07-20 03:00:00 22.7 12 Sudeste 28 Sudeste 0 908.8 -0.2 56
2019-07-20 02:00:00 23.4 11 Sur 26 Sudeste 0 908.9 0 51
2019-07-20 01:00:00 24.2 12 Sudeste 30 Sur 0 909 0.9 49
2019-07-20 00:00:00 25.2 12 Sudeste 30 Sudeste 0 909 1.2 48
2019-07-19 23:00:00 26.7 11 Sudeste 32 Sur 0 908.9 1.2 47
2019-07-19 22:00:00 28.7 10 Sudeste 26 Sur 0 908.1 0.3 36
2019-07-19 21:00:00 30.8 10 Sur 22 Sur 0 907.8 -0.4 19
2019-07-19 20:00:00 32.4 12 Sur 22 Sur 0 907.7 -0.7 18
2019-07-19 19:00:00 33.7 10 Sur 29 Sudeste 0 907.8 -0.9 17
2019-07-19 18:00:00 34.2 7 Sudoeste 32 Sur 0 908.2 -1 17
2019-07-19 17:00:00 34.4 12 Sur 23 Sur 0 908.4 -1.3 18
2019-07-19 16:00:00 34.5 14 Sur 25 Sudoeste 0 908.7 -1.3 18
2019-07-19 15:00:00 33.6 13 Sur 25 Sudoeste 0 909.2 -0.9 20
2019-07-19 14:00:00 32.8 12 Sur 30 Sudeste 0 909.7 -0.4 21
2019-07-19 13:00:00 31.9 11 Sur 31 Sudeste 0 910 -0.2 23
2019-07-19 12:00:00 29.5 16 Sur 29 Sudeste 0 910.1 0.1 31
2019-07-19 11:00:00 27.6 15 Sudeste 27 Sudeste 0 910.1 0.3 38
2019-07-19 10:00:00 26.2 10 Sudeste 24 Sudeste 0 910.2 0.3 40
2019-07-19 09:00:00 22.2 2 Sudeste 8 Sudeste 0 910 0.2 58
2019-07-19 08:00:00 19.7 0 Calma 3 Sudeste 0 909.8 0.1 66
2019-07-19 07:00:00 19.9 2 Sudeste 6 Oeste 0 909.9 0 64
2019-07-19 06:00:00 20.5 2 Noroeste 9 Noroeste 0 909.8 -0.3 63
2019-07-19 05:00:00 21.1 4 Oeste 7 Oeste 0 909.7 -0.3 61
2019-07-19 04:00:00 21.5 0 Calma 7 Sudeste 0 909.9 -0.1 59
2019-07-19 03:00:00 22.2 4 Sudeste 15 Sudeste 0 910.1 0.5 57
2019-07-19 02:00:00 23.2 7 Sudeste 20 Sudeste 0 910 1 54
2019-07-19 01:00:00 24.4 9 Sudeste 23 Sudeste 0 910 1.8 53
2019-07-19 00:00:00 25.1 13 Sudeste 26 Sudeste 0 909.6 1.7 52
2019-07-18 23:00:00 27.8 4 Sudeste 13 Nordeste 0 909 1.4 29
2019-07-18 22:00:00 29.4 3 Noroeste 12 Oeste 0 908.2 0.7 26
2019-07-18 21:00:00 30.8 7 Oeste 18 Noroeste 0 907.9 0.1 25
2019-07-18 20:00:00 32.3 8 Oeste 21 Sudoeste 0 907.6 -0.5 23
2019-07-18 19:00:00 33.2 5 Noroeste 22 Noroeste 0 907.5 -0.8 21
2019-07-18 18:00:00 33.9 10 Oeste 22 Oeste 0 907.8 -0.8 21
2019-07-18 17:00:00 34.1 6 Oeste 22 Oeste 0 908.1 -1 22
2019-07-18 16:00:00 33.2 8 Oeste 21 Sudoeste 0 908.3 -1.1 24
2019-07-18 15:00:00 32.8 8 Sur 17 Oeste 0 908.6 -1.1 24
2019-07-18 14:00:00 31.6 5 Norte 13 Noroeste 0 909.1 -0.6 25
2019-07-18 13:00:00 30.1 6 Noroeste 12 Oeste 0 909.4 -0.4 27
2019-07-18 12:00:00 28.4 4 Oeste 10 Sur 0 909.7 0 31
2019-07-18 11:00:00 26 5 Sur 14 Sur 0 909.7 0.4 37
2019-07-18 10:00:00 23.5 5 Sur 8 Sur 0 909.8 0.9 42
2019-07-18 09:00:00 19.8 2 Sur 5 Sudoeste 0 909.7 1 57
2019-07-18 08:00:00 17.5 0 Calma 3 Norte 0 909.3 0.6 67
2019-07-18 07:00:00 17.7 0 Calma 5 Oeste 0 908.9 0 65
2019-07-18 06:00:00 18.5 3 Oeste 7 Oeste 0 908.7 -0.3 62
2019-07-18 05:00:00 19.3 4 Oeste 8 Oeste 0 908.7 -0.4 62
2019-07-18 04:00:00 20.2 0 Calma 8 Noroeste 0 908.9 -0.1 61
2019-07-18 03:00:00 21.2 2 Sur 19 Sudeste 0 909 0.3 57
2019-07-18 02:00:00 22.4 8 Sudeste 22 Sudeste 0 909.1 0.9 54
2019-07-18 01:00:00 23.2 11 Sudeste 27 Sudeste 0 909 1.5 52
2019-07-18 00:00:00 24.5 7 Sudeste 15 Sur 0 908.7 1.7 46